Time;durP1;ratioP1;P1;durP2;ratioP2;P2;SDS_P1;SDS_P2;PMS_P1;PMS_P2;Temp;Humidity;BMP_temperature;BMP_pressure;BME280_temperature;BME280_humidity;BME280_pressure;Samples;Min_cycle;Max_cycle;Signal;HPM_P1;HPM_P2
2022/11/20 00:02:28;;;;;;;0.63;0.20;;;26.70;99.90;;;;;;5044647;28;20701;-80
2022/11/20 00:08:16;;;;;;;1.38;0.20;;;26.60;99.90;;;;;;5096389;27;20314;-78
2022/11/20 00:10:49;;;;;;;0.57;0.10;;;26.80;99.90;;;;;;5061778;28;20270;-73
2022/11/20 00:13:24;;;;;;;1.02;0.50;;;26.90;99.90;;;;;;5089198;28;20219;-77
2022/11/20 00:16:02;;;;;;;0.75;0.40;;;26.80;99.90;;;;;;5089684;28;20207;-79
2022/11/20 00:18:33;;;;;;;1.73;0.30;;;26.80;99.90;;;;;;5089562;28;20278;-77
2022/11/20 00:21:09;;;;;;;0.40;0.20;;;26.80;99.90;;;;;;5089439;28;20271;-86
2022/11/20 00:23:45;;;;;;;1.10;0.20;;;26.80;99.90;;;;;;5067259;28;20192;-80
2022/11/20 00:26:18;;;;;;;0.25;0.20;;;26.80;99.90;;;;;;5065424;28;20212;-76
2022/11/20 00:28:53;;;;;;;0.30;0.20;;;26.90;99.90;;;;;;5087380;28;20667;-77
2022/11/20 00:31:32;;;;;;;1.17;0.20;;;26.80;99.90;;;;;;5089045;28;20192;-77
2022/11/20 00:34:04;;;;;;;0.13;0.10;;;26.90;99.90;;;;;;5086091;28;20189;-81
2022/11/20 00:36:44;;;;;;;1.80;0.25;;;26.80;99.90;;;;;;5087961;28;20247;-85
2022/11/20 00:39:24;;;;;;;1.40;0.20;;;26.90;99.90;;;;;;5083250;28;20193;-81
2022/11/20 00:41:55;;;;;;;1.60;0.22;;;27.00;99.90;;;;;;5086189;28;20192;-76
2022/11/20 00:44:26;;;;;;;2.25;0.20;;;27.10;99.90;;;;;;5087809;28;20196;-82
2022/11/20 00:47:01;;;;;;;0.20;0.20;;;26.80;99.90;;;;;;5068057;28;20306;-78
2022/11/20 00:49:32;;;;;;;5.03;0.20;;;26.60;99.90;;;;;;5086885;28;20419;-77
2022/11/20 00:52:03;;;;;;;0.55;0.17;;;26.50;99.90;;;;;;5078883;28;20234;-76
2022/11/20 00:54:38;;;;;;;3.05;0.20;;;26.50;99.90;;;;;;5067891;28;20232;-80
2022/11/20 00:57:12;;;;;;;1.92;0.20;;;26.60;99.90;;;;;;5083108;28;20636;-83
2022/11/20 00:59:45;;;;;;;0.52;0.20;;;26.60;99.90;;;;;;5086694;28;20198;-79
2022/11/20 01:02:16;;;;;;;1.15;0.20;;;26.50;99.90;;;;;;5083907;28;20238;-82
2022/11/20 01:04:47;;;;;;;0.85;0.22;;;26.50;99.90;;;;;;5059427;28;20320;-83
2022/11/20 01:07:19;;;;;;;1.42;0.20;;;26.80;99.90;;;;;;5067247;28;20232;-80
2022/11/20 01:09:53;;;;;;;0.22;0.10;;;27.00;99.90;;;;;;5065083;28;20292;-81
2022/11/20 01:12:26;;;;;;;1.55;0.20;;;26.90;99.60;;;;;;5067933;28;20674;-84
2022/11/20 01:14:57;;;;;;;1.48;0.30;;;26.90;99.50;;;;;;5063916;28;20281;-83
2022/11/20 01:17:28;;;;;;;1.00;0.30;;;26.90;99.90;;;;;;5056081;28;20248;-80
2022/11/20 01:19:59;;;;;;;0.55;0.20;;;27.00;99.90;;;;;;5049937;28;20676;-84
2022/11/20 01:22:32;;;;;;;0.43;0.22;;;26.90;99.90;;;;;;5052008;28;20265;-83
2022/11/20 01:25:07;;;;;;;0.40;0.20;;;26.80;99.90;;;;;;5036444;28;20229;-80
2022/11/20 01:27:38;;;;;;;1.65;0.20;;;26.80;99.90;;;;;;5037831;28;20296;-80
2022/11/20 01:30:11;;;;;;;2.25;0.10;;;26.80;99.90;;;;;;5049460;28;20190;-77
2022/11/20 01:32:44;;;;;;;0.63;0.20;;;26.80;99.70;;;;;;5043139;28;20281;-75
2022/11/20 01:35:18;;;;;;;2.10;0.30;;;26.80;99.10;;;;;;5033024;28;20228;-77
2022/11/20 01:37:49;;;;;;;0.90;0.40;;;26.80;99.90;;;;;;5029541;22;20224;-81
2022/11/20 01:40:24;;;;;;;0.57;0.10;;;26.80;99.90;;;;;;5003198;28;20195;-82
2022/11/20 01:43:23;;;;;;;0.68;0.13;;;26.90;99.90;;;;;;5016318;28;20218;-78
2022/11/20 01:46:03;;;;;;;0.85;0.10;;;26.70;99.90;;;;;;5024858;28;20202;-80
2022/11/20 01:48:40;;;;;;;1.35;0.20;;;26.60;99.90;;;;;;5013458;28;20277;-84
2022/11/20 01:51:18;;;;;;;0.30;0.10;;;26.60;99.90;;;;;;5020472;28;20209;-82
2022/11/20 01:53:51;;;;;;;0.20;0.10;;;26.60;99.40;;;;;;5015546;28;20285;-79
2022/11/20 01:56:26;;;;;;;1.92;0.20;;;26.60;99.60;;;;;;5011605;28;20293;-79
2022/11/20 01:59:03;;;;;;;0.80;0.20;;;26.70;99.40;;;;;;5015546;28;20194;-80
2022/11/20 02:01:35;;;;;;;1.30;0.15;;;26.90;99.30;;;;;;5020440;28;20205;-80
2022/11/20 02:04:07;;;;;;;1.05;0.30;;;26.90;99.50;;;;;;5014820;28;20292;-79
2022/11/20 02:06:43;;;;;;;0.73;0.10;;;26.90;99.60;;;;;;5018889;28;20695;-80
2022/11/20 02:09:16;;;;;;;0.75;0.10;;;26.90;99.30;;;;;;5014884;28;20240;-84
2022/11/20 02:11:51;;;;;;;0.35;0.20;;;26.90;99.10;;;;;;5020045;28;20674;-83
2022/11/20 02:14:22;;;;;;;1.50;0.10;;;26.80;99.10;;;;;;5023204;28;20197;-80
2022/11/20 02:16:54;;;;;;;0.70;0.20;;;26.70;99.20;;;;;;5034375;28;20202;-81
2022/11/20 02:19:30;;;;;;;0.60;0.20;;;26.60;99.10;;;;;;4991280;28;20278;-80
2022/11/20 02:22:08;;;;;;;1.73;0.20;;;26.60;99.40;;;;;;5012212;28;20281;-84
2022/11/20 02:24:44;;;;;;;0.50;0.20;;;26.60;99.60;;;;;;5015016;28;20230;-79
2022/11/20 02:27:24;;;;;;;0.60;0.20;;;26.70;99.40;;;;;;5022197;28;20223;-81
2022/11/20 02:29:59;;;;;;;0.30;0.20;;;26.50;99.90;;;;;;5011437;28;20582;-84
2022/11/20 02:32:34;;;;;;;1.65;0.17;;;26.40;99.90;;;;;;5005934;28;20217;-77
2022/11/20 02:35:13;;;;;;;0.38;0.10;;;26.30;99.50;;;;;;5026410;28;20206;-79
2022/11/20 02:37:44;;;;;;;0.20;0.10;;;26.00;99.40;;;;;;5004306;28;20278;-80
2022/11/20 02:40:20;;;;;;;0.13;0.10;;;25.80;99.90;;;;;;4997867;28;20200;-81
2022/11/20 02:42:54;;;;;;;0.60;0.10;;;26.00;99.90;;;;;;4994995;28;20199;-79
2022/11/20 02:45:25;;;;;;;0.25;0.00;;;26.20;99.90;;;;;;4997692;28;20206;-79
2022/11/20 02:47:56;;;;;;;0.10;0.10;;;26.40;99.90;;;;;;4999325;28;20219;-77
2022/11/20 02:50:28;;;;;;;0.10;0.10;;;26.50;99.90;;;;;;5010507;28;20191;-79
2022/11/20 02:52:58;;;;;;;1.50;0.30;;;26.50;99.90;;;;;;5000709;28;20229;-77
2022/11/20 02:55:33;;;;;;;1.30;0.10;;;26.50;99.90;;;;;;5003152;28;20198;-82
2022/11/20 02:58:08;;;;;;;1.10;0.10;;;26.50;99.90;;;;;;4997629;28;20198;-76
2022/11/20 03:00:39;;;;;;;0.93;0.10;;;26.50;99.90;;;;;;4995731;28;20277;-81
2022/11/20 03:03:11;;;;;;;0.93;0.15;;;26.50;99.90;;;;;;4994539;28;20726;-72
2022/11/20 03:05:42;;;;;;;0.50;0.10;;;26.50;99.90;;;;;;4996288;28;20226;-79
2022/11/20 03:08:13;;;;;;;0.57;0.10;;;26.50;99.90;;;;;;4995065;28;20266;-78
2022/11/20 03:10:53;;;;;;;0.35;0.20;;;26.40;99.90;;;;;;4992126;28;20199;-82
2022/11/20 03:13:25;;;;;;;0.28;0.10;;;26.40;99.90;;;;;;5000716;28;20281;-80
2022/11/20 03:15:56;;;;;;;0.13;0.13;;;26.40;99.90;;;;;;4993693;28;20247;-84
2022/11/20 03:18:33;;;;;;;1.08;0.20;;;26.40;99.90;;;;;;4994358;28;20624;-80
2022/11/20 03:21:06;;;;;;;0.55;0.20;;;26.40;99.90;;;;;;4989471;28;20191;-82
2022/11/20 03:23:39;;;;;;;1.73;0.28;;;26.50;99.90;;;;;;4990295;28;20203;-77
2022/11/20 03:26:18;;;;;;;0.10;0.10;;;26.70;99.90;;;;;;5001207;28;20698;-77
2022/11/20 03:28:52;;;;;;;0.25;0.20;;;26.70;99.90;;;;;;5004533;28;20218;-81
2022/11/20 03:31:30;;;;;;;0.10;0.10;;;26.70;99.90;;;;;;4995860;28;20237;-87
2022/11/20 03:34:03;;;;;;;0.40;0.10;;;26.50;99.90;;;;;;4991420;28;20557;-86
2022/11/20 03:36:34;;;;;;;0.98;0.20;;;26.40;99.90;;;;;;4994391;28;20290;-74
2022/11/20 03:39:06;;;;;;;0.30;0.20;;;26.40;99.90;;;;;;4994521;28;20705;-76
2022/11/20 03:41:41;;;;;;;0.13;0.10;;;26.20;99.90;;;;;;5007334;28;20194;-82
2022/11/20 03:44:13;;;;;;;0.68;0.28;;;26.10;99.90;;;;;;5000510;28;20191;-78
2022/11/20 03:46:46;;;;;;;1.48;0.35;;;26.00;99.90;;;;;;4993467;28;20199;-77
2022/11/20 03:49:17;;;;;;;0.95;0.20;;;26.20;99.90;;;;;;4990425;28;20287;-78
2022/11/20 03:51:51;;;;;;;0.15;0.10;;;26.40;99.90;;;;;;5004467;28;20195;-76
2022/11/20 03:54:22;;;;;;;0.32;0.08;;;26.50;99.90;;;;;;4997722;28;20203;-79
2022/11/20 03:56:57;;;;;;;0.60;0.10;;;26.70;99.90;;;;;;4982650;28;20195;-81
2022/11/20 03:59:29;;;;;;;0.32;0.10;;;26.70;99.90;;;;;;5003930;28;20598;-76
2022/11/20 04:02:08;;;;;;;1.17;0.20;;;26.70;99.40;;;;;;4965357;28;20203;-76
2022/11/20 04:04:40;;;;;;;0.15;0.10;;;26.60;99.90;;;;;;5000675;28;20265;-74
2022/11/20 04:07:12;;;;;;;0.73;0.20;;;26.60;99.90;;;;;;4998615;28;20575;-78
2022/11/20 04:09:44;;;;;;;1.23;0.10;;;26.40;99.90;;;;;;4997262;28;20213;-80
2022/11/20 04:12:23;;;;;;;0.20;0.10;;;26.20;99.90;;;;;;5000692;28;20202;-73
2022/11/20 04:14:55;;;;;;;0.85;0.10;;;26.30;99.90;;;;;;4992317;28;20205;-83
2022/11/20 04:17:26;;;;;;;0.40;0.10;;;26.20;99.90;;;;;;4979770;28;20290;-78
2022/11/20 04:20:06;;;;;;;0.57;0.10;;;26.10;99.90;;;;;;4988947;28;20574;-80
2022/11/20 04:22:40;;;;;;;1.40;0.13;;;26.10;99.90;;;;;;5000276;28;20193;-80
2022/11/20 04:25:12;;;;;;;0.25;0.17;;;26.10;99.90;;;;;;4993789;28;20194;-81
2022/11/20 04:27:47;;;;;;;0.43;0.17;;;26.20;99.90;;;;;;4983855;28;20219;-81
2022/11/20 04:30:18;;;;;;;0.57;0.20;;;26.30;99.90;;;;;;4998703;28;20565;-78
2022/11/20 04:32:50;;;;;;;0.60;0.20;;;26.40;99.90;;;;;;5001083;28;20283;-78
2022/11/20 04:35:21;;;;;;;0.50;0.10;;;26.60;99.90;;;;;;4975423;28;20203;-78
2022/11/20 04:37:54;;;;;;;0.22;0.10;;;26.60;99.40;;;;;;4997370;28;20746;-85
2022/11/20 04:40:27;;;;;;;0.15;0.10;;;26.60;99.40;;;;;;4995800;28;20199;-79
2022/11/20 04:43:01;;;;;;;0.47;0.30;;;26.50;99.10;;;;;;5000735;28;20281;-75
2022/11/20 04:45:32;;;;;;;0.60;0.20;;;26.50;99.70;;;;;;4993825;28;20196;-75
2022/11/20 04:48:04;;;;;;;0.52;0.13;;;26.60;99.50;;;;;;5005364;28;20215;-75
2022/11/20 04:50:35;;;;;;;0.32;0.10;;;26.50;99.50;;;;;;4994650;28;20203;-78
2022/11/20 04:53:07;;;;;;;0.80;0.10;;;26.30;99.50;;;;;;5000638;28;20286;-78
2022/11/20 04:55:40;;;;;;;0.50;0.20;;;26.10;96.40;;;;;;4983150;28;20206;-79
2022/11/20 04:58:23;;;;;;;1.05;0.20;;;26.10;97.40;;;;;;4981403;28;20563;-80
2022/11/20 05:00:54;;;;;;;0.28;0.10;;;26.10;98.60;;;;;;5004204;28;20620;-78
2022/11/20 05:03:25;;;;;;;0.55;0.10;;;26.20;98.30;;;;;;5004761;28;20214;-79
2022/11/20 05:05:59;;;;;;;0.65;0.20;;;26.20;97.90;;;;;;4989736;28;20225;-75
2022/11/20 05:08:31;;;;;;;0.52;0.10;;;26.10;98.50;;;;;;5007248;28;20212;-76
2022/11/20 05:11:07;;;;;;;1.75;0.15;;;26.10;98.80;;;;;;4998436;28;20230;-79
2022/11/20 05:13:40;;;;;;;1.05;0.17;;;26.00;96.70;;;;;;5004025;28;20210;-78
2022/11/20 05:16:12;;;;;;;1.33;0.15;;;26.00;96.70;;;;;;5001526;28;20651;-79
2022/11/20 05:18:44;;;;;;;0.55;0.00;;;25.90;96.50;;;;;;4998031;28;20234;-82
2022/11/20 05:21:17;;;;;;;2.08;0.17;;;25.90;96.40;;;;;;5005866;28;20644;-81
2022/11/20 05:23:49;;;;;;;0.47;0.20;;;25.90;97.00;;;;;;4993310;28;20294;-79
2022/11/20 05:26:23;;;;;;;0.85;0.30;;;26.00;96.50;;;;;;4999284;28;20202;-78
2022/11/20 05:28:59;;;;;;;0.32;0.20;;;26.00;96.00;;;;;;4994428;28;20647;-73
2022/11/20 05:31:32;;;;;;;0.55;0.10;;;25.90;95.60;;;;;;4997790;28;20569;-80
2022/11/20 05:34:08;;;;;;;1.77;0.10;;;25.90;95.10;;;;;;4993743;28;20298;-73
2022/11/20 05:36:42;;;;;;;1.55;0.30;;;25.80;94.80;;;;;;4993114;28;20303;-75
2022/11/20 05:39:14;;;;;;;0.47;0.17;;;25.90;95.50;;;;;;5001912;28;20242;-76
2022/11/20 05:42:29;;;;;;;0.50;0.10;;;25.90;95.70;;;;;;4991207;28;20196;-77
2022/11/20 05:44:39;;;;;;;0.95;0.10;;;25.90;95.60;;;;;;5004492;28;20203;-76
2022/11/20 05:47:11;;;;;;;0.98;0.20;;;25.90;95.80;;;;;;5004386;28;20201;-82
2022/11/20 05:49:42;;;;;;;0.52;0.20;;;25.90;95.50;;;;;;4997767;28;20226;-81
2022/11/20 05:52:13;;;;;;;0.35;0.13;;;25.90;95.60;;;;;;5006183;28;20237;-80
2022/11/20 05:54:44;;;;;;;0.40;0.10;;;25.90;95.70;;;;;;5004695;28;20286;-85
2022/11/20 05:57:16;;;;;;;1.35;0.20;;;26.00;95.70;;;;;;4976570;28;20607;-80
2022/11/20 05:59:52;;;;;;;1.85;0.20;;;26.10;95.00;;;;;;4982277;28;20227;-80
2022/11/20 06:02:22;;;;;;;0.50;0.20;;;26.20;95.00;;;;;;4990670;28;20652;-76
2022/11/20 06:04:55;;;;;;;1.25;0.25;;;26.20;94.40;;;;;;5002499;28;20282;-82
2022/11/20 06:07:26;;;;;;;0.65;0.20;;;26.10;94.50;;;;;;4996339;28;20207;-78
2022/11/20 06:09:57;;;;;;;0.45;0.10;;;26.00;94.20;;;;;;4977686;28;20620;-75
2022/11/20 06:12:30;;;;;;;0.82;0.20;;;25.90;94.00;;;;;;4988540;28;20279;-78
2022/11/20 06:15:04;;;;;;;0.35;0.13;;;26.00;94.20;;;;;;5000829;28;20638;-81
2022/11/20 06:17:35;;;;;;;0.65;0.20;;;26.00;93.60;;;;;;4995791;28;20191;-81
2022/11/20 06:20:06;;;;;;;1.88;0.20;;;26.10;93.70;;;;;;5004472;28;20661;-79
2022/11/20 06:22:38;;;;;;;1.35;0.10;;;26.10;93.40;;;;;;5002160;28;20213;-83
2022/11/20 06:25:09;;;;;;;1.42;0.30;;;26.20;93.60;;;;;;4997205;28;20195;-82
2022/11/20 06:27:40;;;;;;;1.10;0.22;;;26.10;93.40;;;;;;5002839;28;20315;-78
2022/11/20 06:30:16;;;;;;;0.50;0.20;;;26.10;93.60;;;;;;5001629;28;20281;-79
2022/11/20 06:32:47;;;;;;;0.50;0.20;;;25.90;93.60;;;;;;5001787;28;20701;-78
2022/11/20 06:35:20;;;;;;;0.65;0.15;;;25.80;93.80;;;;;;5009181;28;20278;-79
2022/11/20 06:37:51;;;;;;;0.40;0.20;;;25.80;93.70;;;;;;4997318;28;20238;-78
2022/11/20 06:40:26;;;;;;;0.47;0.30;;;25.80;94.00;;;;;;4994029;28;20291;-83
2022/11/20 06:42:58;;;;;;;0.65;0.10;;;25.80;94.20;;;;;;4998388;28;20205;-77
2022/11/20 06:45:33;;;;;;;0.50;0.20;;;25.80;93.10;;;;;;5009879;28;20223;-82
2022/11/20 06:48:04;;;;;;;2.17;0.20;;;25.70;92.80;;;;;;5003024;28;20213;-82
2022/11/20 06:50:38;;;;;;;0.17;0.10;;;25.60;93.00;;;;;;5002188;28;20199;-79
2022/11/20 06:53:10;;;;;;;0.10;0.10;;;25.50;93.30;;;;;;5010842;28;20187;-78
2022/11/20 06:55:46;;;;;;;0.50;0.10;;;25.50;93.60;;;;;;5005754;28;20542;-84
2022/11/20 06:58:18;;;;;;;1.00;0.28;;;25.50;93.90;;;;;;4995618;28;20238;-81
2022/11/20 07:00:54;;;;;;;0.20;0.20;;;25.40;94.20;;;;;;5011515;28;20541;-85
2022/11/20 07:03:27;;;;;;;1.35;0.20;;;25.40;94.40;;;;;;4978571;28;20286;-80
2022/11/20 07:05:59;;;;;;;1.02;0.30;;;25.40;94.30;;;;;;4996585;28;20203;-79
2022/11/20 07:08:30;;;;;;;0.50;0.30;;;25.40;94.50;;;;;;5002862;28;20309;-81
2022/11/20 07:11:02;;;;;;;0.30;0.20;;;25.40;94.50;;;;;;5008595;28;20283;-79
2022/11/20 07:13:36;;;;;;;0.63;0.22;;;25.40;94.00;;;;;;4996533;28;20662;-79
2022/11/20 07:16:13;;;;;;;0.75;0.20;;;25.40;93.20;;;;;;5006855;28;20194;-81
2022/11/20 07:18:44;;;;;;;0.30;0.10;;;25.30;92.90;;;;;;4997975;28;20199;-77
2022/11/20 07:21:15;;;;;;;0.20;0.17;;;25.20;93.10;;;;;;4999501;28;20196;-78
2022/11/20 07:23:46;;;;;;;1.02;0.30;;;25.10;93.50;;;;;;4999923;28;20231;-80
2022/11/20 07:26:17;;;;;;;0.20;0.20;;;25.00;93.70;;;;;;4999716;28;20270;-81
2022/11/20 07:28:52;;;;;;;0.90;0.30;;;25.00;94.00;;;;;;4993002;28;20219;-78
2022/11/20 07:31:27;;;;;;;1.23;0.20;;;24.90;94.10;;;;;;4996328;28;20681;-84
2022/11/20 07:34:11;;;;;;;0.73;0.20;;;24.90;94.30;;;;;;5007763;28;20244;-83
2022/11/20 07:36:43;;;;;;;0.93;0.30;;;24.90;94.60;;;;;;4995053;28;20222;-84
2022/11/20 07:39:16;;;;;;;1.65;0.28;;;24.90;94.50;;;;;;4994670;28;20259;-79
2022/11/20 07:41:48;;;;;;;0.55;0.30;;;24.90;94.60;;;;;;4998830;28;20738;-85
2022/11/20 07:44:20;;;;;;;1.33;0.25;;;24.90;94.60;;;;;;4992912;28;20676;-82
2022/11/20 07:46:55;;;;;;;1.10;0.40;;;25.00;94.50;;;;;;4982417;28;20198;-79
2022/11/20 07:49:26;;;;;;;1.13;0.13;;;24.90;94.40;;;;;;4993831;28;20217;-85
2022/11/20 07:51:57;;;;;;;0.40;0.20;;;24.90;94.40;;;;;;4993217;28;20286;-78
2022/11/20 07:54:31;;;;;;;0.60;0.28;;;24.90;94.60;;;;;;4994919;28;20199;-82
2022/11/20 07:57:09;;;;;;;1.55;0.28;;;24.80;94.60;;;;;;4974318;28;20250;-82
2022/11/20 07:59:41;;;;;;;0.63;0.30;;;24.70;94.80;;;;;;4985718;28;20204;-86
2022/11/20 08:02:34;;;;;;;0.28;0.17;;;24.60;95.10;;;;;;4991287;28;20207;-84
2022/11/20 08:05:09;;;;;;;0.80;0.30;;;24.50;95.50;;;;;;4984250;28;20308;-79
2022/11/20 08:07:42;;;;;;;1.65;0.20;;;24.40;95.70;;;;;;4987098;28;20876;-80
2022/11/20 08:10:15;;;;;;;1.23;0.28;;;24.30;95.70;;;;;;4988846;28;20211;-81
2022/11/20 08:15:37;;;;;;;2.28;0.30;;;24.10;96.10;;;;;;4984626;28;20277;-84
2022/11/20 08:18:13;;;;;;;0.45;0.30;;;23.90;96.30;;;;;;4991989;28;20302;-80
2022/11/20 08:20:45;;;;;;;0.57;0.28;;;23.80;96.50;;;;;;4972850;28;20246;-82
2022/11/20 08:23:16;;;;;;;0.73;0.25;;;23.70;96.60;;;;;;4990167;28;20658;-83
2022/11/20 08:25:51;;;;;;;1.55;0.40;;;23.60;97.00;;;;;;4990804;28;20286;-82
2022/11/20 08:28:23;;;;;;;1.98;0.45;;;23.60;96.80;;;;;;4993370;28;20734;-80
2022/11/20 08:31:03;;;;;;;1.40;0.43;;;23.50;97.10;;;;;;4991144;28;20294;-85
2022/11/20 08:33:36;;;;;;;1.70;0.45;;;23.40;97.10;;;;;;4992174;28;20203;-85
2022/11/20 08:36:08;;;;;;;0.88;0.40;;;23.30;97.40;;;;;;4995518;28;20286;-81
2022/11/20 08:38:41;;;;;;;3.88;0.40;;;23.30;97.20;;;;;;4995001;28;20337;-82
2022/11/20 08:41:28;;;;;;;1.52;0.40;;;23.20;97.50;;;;;;4977736;28;20230;-78
2022/11/20 08:44:02;;;;;;;1.63;0.40;;;23.20;97.50;;;;;;4982843;28;20195;-86
2022/11/20 08:46:41;;;;;;;2.58;0.52;;;23.00;97.40;;;;;;4996336;28;20199;-81
2022/11/20 08:49:17;;;;;;;2.47;0.63;;;23.00;97.30;;;;;;4990064;28;20215;-81
2022/11/20 08:51:52;;;;;;;0.35;0.30;;;22.90;97.10;;;;;;5002759;28;20236;-81
2022/11/20 08:54:23;;;;;;;0.77;0.30;;;22.90;97.10;;;;;;5007078;28;20195;-83
2022/11/20 08:57:02;;;;;;;2.83;0.40;;;22.90;97.30;;;;;;5015010;28;20195;-87
2022/11/20 08:59:40;;;;;;;0.52;0.30;;;22.80;97.20;;;;;;4983070;28;20275;-84
2022/11/20 09:02:12;;;;;;;0.95;0.32;;;22.70;96.90;;;;;;4994454;28;20199;-82
2022/11/20 09:04:46;;;;;;;1.27;0.20;;;22.70;97.00;;;;;;4987695;28;20605;-83
2022/11/20 09:07:21;;;;;;;0.90;0.32;;;22.60;96.60;;;;;;4995899;28;20234;-84
2022/11/20 09:09:53;;;;;;;1.02;0.30;;;22.60;96.80;;;;;;4993030;28;20211;-82
2022/11/20 09:12:24;;;;;;;0.60;0.30;;;22.60;96.30;;;;;;5010228;28;20203;-81
2022/11/20 09:14:55;;;;;;;1.35;0.40;;;22.50;96.60;;;;;;4977391;28;20282;-77
2022/11/20 09:17:28;;;;;;;1.48;0.30;;;22.50;96.60;;;;;;5002090;28;20286;-77
2022/11/20 09:20:02;;;;;;;1.55;0.30;;;22.40;96.50;;;;;;5008876;28;20656;-80
2022/11/20 09:22:35;;;;;;;0.68;0.30;;;22.40;96.60;;;;;;4998184;28;20717;-83
2022/11/20 09:25:08;;;;;;;0.77;0.20;;;22.30;96.70;;;;;;4997189;28;20195;-80
2022/11/20 09:27:43;;;;;;;0.57;0.30;;;22.30;96.40;;;;;;5008266;28;20282;-78
2022/11/20 09:30:16;;;;;;;1.83;0.30;;;22.30;96.60;;;;;;5008764;28;20293;-78
2022/11/20 09:32:47;;;;;;;0.55;0.28;;;22.20;96.60;;;;;;4988723;28;20190;-82
2022/11/20 09:35:22;;;;;;;2.35;0.35;;;22.20;96.60;;;;;;4999553;28;20203;-78
2022/11/20 09:37:55;;;;;;;1.58;0.40;;;22.20;96.50;;;;;;5000457;28;20244;-79
2022/11/20 09:40:29;;;;;;;0.60;0.30;;;22.10;96.80;;;;;;4979044;28;20275;-78
2022/11/20 09:43:05;;;;;;;1.95;0.50;;;22.10;96.60;;;;;;5000763;28;20278;-79
2022/11/20 09:45:48;;;;;;;0.85;0.30;;;22.10;96.60;;;;;;5001654;28;20215;-80
2022/11/20 09:48:38;;;;;;;1.30;0.40;;;22.00;97.10;;;;;;4996162;28;20271;-80
2022/11/20 09:51:20;;;;;;;2.10;0.30;;;21.90;97.10;;;;;;4974373;28;20287;-80
2022/11/20 09:54:04;;;;;;;1.30;0.40;;;21.90;97.20;;;;;;4996521;28;20199;-77
2022/11/20 09:56:40;;;;;;;0.65;0.30;;;21.90;96.90;;;;;;4994326;28;20196;-78
2022/11/20 09:59:17;;;;;;;1.23;0.40;;;21.90;97.40;;;;;;5002366;28;20199;-78
2022/11/20 10:01:49;;;;;;;1.30;0.45;;;21.80;97.00;;;;;;5001758;28;20638;-82
2022/11/20 10:04:24;;;;;;;1.48;0.30;;;21.80;97.00;;;;;;5000170;28;20212;-80
2022/11/20 10:07:08;;;;;;;1.38;0.50;;;21.80;96.90;;;;;;5001289;28;20271;-80
2022/11/20 10:09:43;;;;;;;1.05;0.30;;;21.80;97.10;;;;;;4976620;28;20221;-77
2022/11/20 10:12:25;;;;;;;2.55;0.55;;;21.70;97.30;;;;;;4995084;28;20276;-79
2022/11/20 10:15:16;;;;;;;1.05;0.40;;;21.70;97.10;;;;;;4995247;28;20201;-80
2022/11/20 10:18:09;;;;;;;0.73;0.40;;;21.60;96.90;;;;;;4992907;28;20196;-80
2022/11/20 10:20:49;;;;;;;1.85;0.50;;;21.60;97.00;;;;;;4994178;28;20203;-80
2022/11/20 10:24:03;;;;;;;1.73;0.40;;;21.60;97.30;;;;;;4998672;28;20659;-79
2022/11/20 10:26:46;;;;;;;2.17;0.50;;;21.60;97.00;;;;;;4987314;28;20207;-77
2022/11/20 10:29:25;;;;;;;0.77;0.38;;;21.50;97.20;;;;;;4998597;28;20302;-77
2022/11/20 10:32:02;;;;;;;0.93;0.40;;;21.50;97.10;;;;;;5002259;28;20290;-81
2022/11/20 10:34:41;;;;;;;1.52;0.40;;;21.40;97.20;;;;;;5000626;28;20665;-79
2022/11/20 10:37:17;;;;;;;0.52;0.35;;;21.40;97.30;;;;;;5005924;28;20218;-77
2022/11/20 10:39:58;;;;;;;0.60;0.35;;;21.30;97.20;;;;;;4990726;28;20289;-82
2022/11/20 10:42:39;;;;;;;1.10;0.40;;;21.30;97.50;;;;;;5005824;28;20302;-83
2022/11/20 10:45:22;;;;;;;1.10;0.45;;;21.20;97.80;;;;;;5003300;28;20214;-83
2022/11/20 10:47:56;;;;;;;2.28;0.50;;;21.20;98.30;;;;;;4999189;28;20219;-84
2022/11/20 10:50:31;;;;;;;0.95;0.50;;;21.20;98.20;;;;;;4991584;28;20749;-81
2022/11/20 10:53:11;;;;;;;2.25;0.57;;;21.10;98.50;;;;;;4993477;28;20203;-83
2022/11/20 10:55:47;;;;;;;0.85;0.47;;;21.00;98.50;;;;;;4997331;28;20234;-84
2022/11/20 10:58:35;;;;;;;1.50;0.38;;;21.00;98.90;;;;;;4995349;28;20204;-83
2022/11/20 11:01:16;;;;;;;0.60;0.40;;;20.90;99.10;;;;;;4995159;28;20207;-83
2022/11/20 11:03:48;;;;;;;0.95;0.52;;;20.90;99.10;;;;;;4993586;28;20286;-84
2022/11/20 11:06:30;;;;;;;1.58;0.50;;;20.90;98.90;;;;;;4990222;28;20203;-81
2022/11/20 11:09:13;;;;;;;1.52;0.40;;;20.90;99.10;;;;;;4987282;28;20726;-82
2022/11/20 11:11:45;;;;;;;1.80;0.80;;;20.90;99.30;;;;;;5009751;28;20191;-83
2022/11/20 11:14:24;;;;;;;1.58;0.50;;;20.90;99.40;;;;;;4993627;28;20210;-82
2022/11/20 11:16:56;;;;;;;1.50;0.40;;;20.90;99.70;;;;;;5001543;28;20627;-82
2022/11/20 11:19:27;;;;;;;0.95;0.50;;;20.90;99.90;;;;;;4994834;28;20286;-82
2022/11/20 11:22:00;;;;;;;2.80;0.45;;;20.80;99.80;;;;;;5002496;28;20200;-82
2022/11/20 11:24:32;;;;;;;2.20;0.30;;;20.80;99.90;;;;;;5002018;28;20234;-85
2022/11/20 11:27:06;;;;;;;2.50;0.60;;;20.80;99.90;;;;;;4992584;28;20207;-82
2022/11/20 11:29:40;;;;;;;1.10;0.40;;;20.80;99.90;;;;;;4990405;28;20272;-80
2022/11/20 11:32:15;;;;;;;1.10;0.30;;;20.80;99.90;;;;;;4990605;28;20545;-82
2022/11/20 11:34:46;;;;;;;1.95;0.50;;;20.80;99.90;;;;;;5001971;28;20194;-82
2022/11/20 11:37:24;;;;;;;1.35;0.50;;;20.80;99.90;;;;;;4973624;28;20302;-81
2022/11/20 11:39:55;;;;;;;0.63;0.32;;;20.80;99.90;;;;;;4995992;28;20203;-82
2022/11/20 11:42:27;;;;;;;0.73;0.30;;;20.70;99.90;;;;;;4976400;28;20658;-82
2022/11/20 11:45:07;;;;;;;3.50;0.40;;;20.70;99.90;;;;;;4996344;28;21156;-80
2022/11/20 11:47:47;;;;;;;2.50;0.50;;;20.70;99.90;;;;;;5007144;28;20192;-82
2022/11/20 11:50:20;;;;;;;1.73;0.40;;;20.70;99.90;;;;;;4983801;28;20579;-82
2022/11/20 11:53:04;;;;;;;1.30;0.40;;;20.60;99.90;;;;;;4990003;28;20200;-82
2022/11/20 11:55:40;;;;;;;1.63;0.50;;;20.50;99.90;;;;;;4990132;28;20203;-81
2022/11/20 11:58:23;;;;;;;1.90;0.20;;;20.50;99.90;;;;;;4981386;28;20666;-83
2022/11/20 12:01:01;;;;;;;0.35;0.25;;;20.40;99.90;;;;;;4995732;28;20206;-80
2022/11/20 12:03:38;;;;;;;1.25;0.50;;;20.40;99.90;;;;;;4994555;28;20195;-80
2022/11/20 12:06:14;;;;;;;0.68;0.40;;;20.30;99.90;;;;;;4999011;28;20207;-81
2022/11/20 12:08:52;;;;;;;0.32;0.32;;;20.30;99.90;;;;;;4994357;28;20199;-82
2022/11/20 12:11:32;;;;;;;1.75;0.50;;;20.30;99.90;;;;;;5005471;28;20705;-82
2022/11/20 12:14:12;;;;;;;1.15;0.47;;;20.30;99.90;;;;;;5003410;28;20273;-83
2022/11/20 12:16:48;;;;;;;1.10;0.35;;;20.30;99.90;;;;;;4982894;28;20673;-82
2022/11/20 12:19:20;;;;;;;1.98;0.57;;;20.20;99.90;;;;;;4994549;28;20195;-78
2022/11/20 12:22:02;;;;;;;1.55;0.38;;;20.20;99.90;;;;;;4998925;28;20191;-77
2022/11/20 12:24:51;;;;;;;1.98;0.50;;;20.10;99.90;;;;;;4984313;28;20205;-77
2022/11/20 12:27:43;;;;;;;1.65;0.38;;;20.10;99.90;;;;;;5001624;28;20721;-78
2022/11/20 12:30:16;;;;;;;0.85;0.40;;;20.10;99.90;;;;;;4995192;28;20313;-77
2022/11/20 12:33:10;;;;;;;1.88;0.65;;;20.00;99.90;;;;;;4997623;28;20198;-78
2022/11/20 12:36:01;;;;;;;1.60;0.47;;;20.00;99.90;;;;;;4978331;28;20293;-77
2022/11/20 12:39:01;;;;;;;1.50;0.40;;;20.00;99.90;;;;;;4976123;28;20259;-77
2022/11/20 12:45:14;;;;;;;2.25;0.50;;;19.80;99.90;;;;;;4963078;28;20273;-81
2022/11/20 12:48:12;;;;;;;1.65;0.40;;;19.80;99.90;;;;;;4992634;28;20564;-81
2022/11/20 12:50:52;;;;;;;0.82;0.40;;;19.70;99.90;;;;;;4992817;28;20222;-85
2022/11/20 12:53:34;;;;;;;1.15;0.60;;;19.70;99.90;;;;;;4990788;28;20282;-85
2022/11/20 12:56:23;;;;;;;0.60;0.30;;;19.60;99.90;;;;;;5004059;28;20187;-84
2022/11/20 12:59:05;;;;;;;0.95;0.38;;;19.60;99.90;;;;;;5000740;28;20232;-78
2022/11/20 13:01:50;;;;;;;1.45;0.35;;;19.50;99.90;;;;;;4996702;28;20238;-78
2022/11/20 13:04:41;;;;;;;0.98;0.38;;;19.40;99.90;;;;;;4991769;28;20195;-80
2022/11/20 13:07:14;;;;;;;1.13;0.50;;;19.40;99.90;;;;;;4990293;28;20270;-77
2022/11/20 13:09:49;;;;;;;0.98;0.40;;;19.30;99.90;;;;;;5003995;28;20274;-78
2022/11/20 13:12:25;;;;;;;0.98;0.40;;;19.10;99.90;;;;;;5001039;28;20198;-77
2022/11/20 13:15:04;;;;;;;2.33;0.60;;;19.10;99.90;;;;;;5006836;28;20191;-78
2022/11/20 13:17:40;;;;;;;2.55;0.50;;;19.00;99.90;;;;;;4990252;28;20227;-78
2022/11/20 13:20:18;;;;;;;2.28;0.60;;;18.90;99.90;;;;;;4987805;28;20231;-78
2022/11/20 13:22:51;;;;;;;1.45;0.63;;;18.90;99.90;;;;;;4998594;28;20203;-77
2022/11/20 13:25:30;;;;;;;1.63;0.60;;;18.90;99.90;;;;;;4998578;28;20653;-77
2022/11/20 13:28:02;;;;;;;1.08;0.60;;;18.80;99.90;;;;;;5005510;28;20183;-77
2022/11/20 13:30:34;;;;;;;3.60;0.60;;;18.80;99.90;;;;;;5006450;28;20219;-78
2022/11/20 13:33:11;;;;;;;2.50;0.50;;;18.70;99.90;;;;;;4996535;28;20589;-78
2022/11/20 13:35:57;;;;;;;0.55;0.40;;;18.70;99.90;;;;;;4989309;28;20199;-77
2022/11/20 13:38:28;;;;;;;0.80;0.40;;;18.70;99.90;;;;;;5022125;23;20222;-81
2022/11/20 13:41:27;;;;;;;1.73;0.60;;;18.70;99.90;;;;;;5026671;28;20205;-81